Time;durP1;ratioP1;P1;durP2;ratioP2;P2;SDS_P1;SDS_P2;PMS_P1;PMS_P2;Temp;Humidity;BMP_temperature;BMP_pressure;BME280_temperature;BME280_humidity;BME280_pressure;Samples;Min_cycle;Max_cycle;Signal;HPM_P1;HPM_P2
2024/02/05 00:01:47;;;;;;;;;6.00;5.33;;;;;;;;6282470;22;45393;-82
2024/02/05 00:04:12;;;;;;;;;4.67;4.00;;;;;;;;6283499;22;45520;-81
2024/02/05 00:06:40;;;;;;;;;2.67;2.67;;;;;;;;6180938;22;45929;-81
2024/02/05 00:09:05;;;;;;;;;3.33;3.00;;;;;;;;6282606;22;45255;-80
2024/02/05 00:11:31;;;;;;;;;2.75;1.00;;;;;;;;6177256;23;45658;-82
2024/02/05 00:13:57;;;;;;;;;8.00;5.00;;;;;;;;6176895;23;45610;-81
2024/02/05 00:16:22;;;;;;;;;2.33;2.00;;;;;;;;6282530;22;47242;-81
2024/02/05 00:18:47;;;;;;;;;3.50;3.25;;;;;;;;6178714;22;45755;-80
2024/02/05 00:21:13;;;;;;;;;4.50;3.25;;;;;;;;6178269;23;45320;-82
2024/02/05 00:23:38;;;;;;;;;5.67;4.67;;;;;;;;6178326;23;45363;-81
2024/02/05 00:26:11;;;;;;;;;6.00;3.00;;;;;;;;6280435;22;47180;-82
2024/02/05 00:28:37;;;;;;;;;4.00;2.00;;;;;;;;6282306;22;45319;-82
2024/02/05 00:31:02;;;;;;;;;5.33;3.67;;;;;;;;6178042;22;45263;-81
2024/02/05 00:33:27;;;;;;;;;4.75;2.00;;;;;;;;6288218;22;45263;-81
2024/02/05 00:35:52;;;;;;;;;4.25;2.75;;;;;;;;6284209;22;47358;-81
2024/02/05 00:38:18;;;;;;;;;3.50;3.25;;;;;;;;6177829;22;45629;-81
2024/02/05 00:40:51;;;;;;;;;6.50;4.00;;;;;;;;6281996;22;45438;-81
2024/02/05 00:43:16;;;;;;;;;3.75;3.50;;;;;;;;6282097;22;45426;-81
2024/02/05 00:45:41;;;;;;;;;5.00;4.00;;;;;;;;6175765;23;45394;-81
2024/02/05 00:48:07;;;;;;;;;2.50;2.50;;;;;;;;6279255;22;45328;-81
2024/02/05 00:53:35;;;;;;;;;3.00;2.67;;;;;;;;6178416;23;45283;-80
2024/02/05 00:56:02;;;;;;;;;4.75;4.75;;;;;;;;6282323;22;47955;-80
2024/02/05 00:58:27;;;;;;;;;4.33;2.67;;;;;;;;6281795;22;45765;-81
2024/02/05 01:00:52;;;;;;;;;3.00;3.00;;;;;;;;6176673;22;45368;-81
2024/02/05 01:03:18;;;;;;;;;1.00;1.00;;;;;;;;6177225;23;45034;-81
2024/02/05 01:05:43;;;;;;;;;4.00;3.00;;;;;;;;6181501;22;45505;-81
2024/02/05 01:08:08;;;;;;;;;2.75;2.75;;;;;;;;6178069;23;45776;-82
2024/02/05 01:10:33;;;;;;;;;2.33;2.00;;;;;;;;6281916;22;45433;-82
2024/02/05 01:12:58;;;;;;;;;6.00;3.00;;;;;;;;6281565;22;45295;-81
2024/02/05 01:15:24;;;;;;;;;1.75;1.25;;;;;;;;6281732;22;47294;-81
2024/02/05 01:17:49;;;;;;;;;2.50;2.50;;;;;;;;6176574;23;45249;-81
2024/02/05 01:20:14;;;;;;;;;2.67;2.00;;;;;;;;6177654;22;45416;-81
2024/02/05 01:22:39;;;;;;;;;5.33;4.00;;;;;;;;6281522;22;45475;-81
2024/02/05 01:25:05;;;;;;;;;4.75;3.00;;;;;;;;6176595;23;45961;-81
2024/02/05 01:27:30;;;;;;;;;3.00;2.25;;;;;;;;6177002;23;45378;-81
2024/02/05 01:29:55;;;;;;;;;4.00;2.00;;;;;;;;6282577;22;45403;-80
2024/02/05 01:32:21;;;;;;;;;5.00;3.00;;;;;;;;6281457;22;45706;-80
2024/02/05 01:34:46;;;;;;;;;1.50;1.50;;;;;;;;6176368;23;46301;-80
2024/02/05 01:37:11;;;;;;;;;2.33;2.00;;;;;;;;6177669;22;45351;-80
2024/02/05 01:39:36;;;;;;;;;5.00;2.00;;;;;;;;6281448;22;44893;-81
2024/02/05 01:42:03;;;;;;;;;3.00;3.00;;;;;;;;6178367;22;45504;-81
2024/02/05 01:44:28;;;;;;;;;3.00;3.00;;;;;;;;6253638;22;47257;-81
2024/02/05 01:46:54;;;;;;;;;2.00;2.00;;;;;;;;6172719;22;45422;-81
2024/02/05 01:49:20;;;;;;;;;2.50;2.50;;;;;;;;6177312;23;44849;-81
2024/02/05 01:51:46;;;;;;;;;3.25;2.25;;;;;;;;6178031;23;45311;-80
2024/02/05 01:54:14;;;;;;;;;3.25;2.00;;;;;;;;6281744;22;47243;-81
2024/02/05 01:56:40;;;;;;;;;2.50;2.00;;;;;;;;6282426;22;45376;-81
2024/02/05 01:59:06;;;;;;;;;4.50;3.25;;;;;;;;6282442;22;45619;-80
2024/02/05 02:43:17;;;;;;;;;3.67;2.00;;;;;;;;6318666;22;45302;-82
2024/02/05 02:45:45;;;;;;;;;2.67;2.00;;;;;;;;6309772;22;45413;-83
2024/02/05 02:48:10;;;;;;;;;3.33;3.33;;;;;;;;6340075;22;45373;-82
2024/02/05 02:50:35;;;;;;;;;2.33;2.00;;;;;;;;6311026;22;48541;-82
2024/02/05 02:53:02;;;;;;;;;3.33;2.00;;;;;;;;6312428;22;45951;-83
2024/02/05 02:55:28;;;;;;;;;2.00;2.00;;;;;;;;6337991;22;45396;-81
2024/02/05 02:57:53;;;;;;;;;2.00;2.00;;;;;;;;6308409;22;45296;-81
2024/02/05 03:00:18;;;;;;;;;3.00;2.00;;;;;;;;6339119;22;45383;-82
2024/02/05 03:02:43;;;;;;;;;2.33;2.00;;;;;;;;6338430;22;45368;-82
2024/02/05 03:05:09;;;;;;;;;1.33;1.00;;;;;;;;6308847;22;45506;-82
2024/02/05 03:07:34;;;;;;;;;2.50;2.50;;;;;;;;6310053;22;45824;-82
2024/02/05 03:10:00;;;;;;;;;4.00;2.00;;;;;;;;6308621;22;47274;-82
2024/02/05 03:12:32;;;;;;;;;2.00;2.00;;;;;;;;6338263;22;45341;-81
2024/02/05 03:14:59;;;;;;;;;4.75;2.00;;;;;;;;6338787;22;45299;-82
2024/02/05 03:17:24;;;;;;;;;1.75;1.00;;;;;;;;6338625;22;45402;-81
2024/02/05 03:19:49;;;;;;;;;1.00;1.00;;;;;;;;6311414;22;47516;-81
2024/02/05 03:22:15;;;;;;;;;1.00;1.00;;;;;;;;6338669;22;45723;-81
2024/02/05 03:24:40;;;;;;;;;3.67;2.67;;;;;;;;6310170;22;45370;-80
2024/02/05 03:27:05;;;;;;;;;3.25;2.00;;;;;;;;6338149;22;45391;-80
2024/02/05 03:32:35;;;;;;;;;1.67;1.67;;;;;;;;6340255;22;45280;-82
2024/02/05 03:35:00;;;;;;;;;1.50;1.50;;;;;;;;6312055;22;45691;-81
2024/02/05 03:37:26;;;;;;;;;1.00;1.00;;;;;;;;6309790;22;45350;-81
2024/02/05 03:39:52;;;;;;;;;4.00;1.00;;;;;;;;6338010;22;45355;-81
2024/02/05 03:42:17;;;;;;;;;3.25;3.25;;;;;;;;6310630;22;45297;-81
2024/02/05 03:44:42;;;;;;;;;2.00;2.00;;;;;;;;6309986;22;45635;-80
2024/02/05 03:47:07;;;;;;;;;3.00;2.00;;;;;;;;6337441;22;45197;-80
2024/02/05 03:49:33;;;;;;;;;2.25;1.25;;;;;;;;6309744;22;48740;-81
2024/02/05 03:55:01;;;;;;;;;2.33;2.00;;;;;;;;6336381;22;45437;-81
2024/02/05 03:57:26;;;;;;;;;4.00;1.00;;;;;;;;6308479;22;45847;-81
2024/02/05 03:59:54;;;;;;;;;2.00;2.00;;;;;;;;6308574;22;48085;-80
2024/02/05 04:02:20;;;;;;;;;2.67;2.00;;;;;;;;6308715;22;45799;-81
2024/02/05 04:04:47;;;;;;;;;4.00;2.00;;;;;;;;6308155;22;45251;-80
2024/02/05 04:07:12;;;;;;;;;3.67;3.33;;;;;;;;6309203;22;45311;-80
2024/02/05 04:09:37;;;;;;;;;2.00;2.00;;;;;;;;6309670;22;47200;-80
2024/02/05 04:12:02;;;;;;;;;2.00;2.00;;;;;;;;6340529;22;45299;-80
2024/02/05 04:14:28;;;;;;;;;2.67;1.67;;;;;;;;6311749;22;45322;-81
2024/02/05 04:16:54;;;;;;;;;2.00;2.00;;;;;;;;6337224;22;45361;-80
2024/02/05 04:19:19;;;;;;;;;2.00;1.67;;;;;;;;6338746;22;45361;-81
2024/02/05 04:21:44;;;;;;;;;5.00;4.00;;;;;;;;6307411;22;45295;-80
2024/02/05 04:24:09;;;;;;;;;3.00;3.00;;;;;;;;6308182;22;45374;-81
2024/02/05 04:26:35;;;;;;;;;3.25;1.50;;;;;;;;6311658;22;45298;-81
2024/02/05 04:29:00;;;;;;;;;2.50;1.25;;;;;;;;6311331;22;47557;-81
2024/02/05 04:31:26;;;;;;;;;3.00;3.00;;;;;;;;6309702;22;45530;-81
2024/02/05 04:33:51;;;;;;;;;2.25;2.25;;;;;;;;6309448;22;45389;-81
2024/02/05 04:36:16;;;;;;;;;7.00;3.00;;;;;;;;6307328;22;45562;-81
2024/02/05 04:38:42;;;;;;;;;3.50;3.00;;;;;;;;6337366;22;46737;-81
2024/02/05 04:41:08;;;;;;;;;5.50;2.75;;;;;;;;6308684;22;46022;-81
2024/02/05 04:43:33;;;;;;;;;4.75;3.00;;;;;;;;6307830;22;45332;-81
2024/02/05 04:45:59;;;;;;;;;3.75;1.75;;;;;;;;6309044;22;45363;-81
2024/02/05 04:48:24;;;;;;;;;2.25;2.25;;;;;;;;6337133;22;45714;-80
2024/02/05 04:50:49;;;;;;;;;2.00;2.00;;;;;;;;6309057;22;45355;-81
2024/02/05 04:53:49;;;;;;;;;4.67;2.33;;;;;;;;6306641;22;45368;-81
2024/02/05 04:56:14;;;;;;;;;0.00;0.00;;;;;;;;6309745;22;45346;-82
2024/02/05 04:58:39;;;;;;;;;2.33;2.33;;;;;;;;6308938;22;46972;-81
2024/02/05 05:01:05;;;;;;;;;4.00;3.00;;;;;;;;6308484;22;45365;-81
2024/02/05 05:03:33;;;;;;;;;4.67;4.00;;;;;;;;6333547;22;45313;-81
2024/02/05 05:06:02;;;;;;;;;4.00;3.00;;;;;;;;6310271;22;45373;-81
2024/02/05 05:08:28;;;;;;;;;4.67;3.00;;;;;;;;6337505;22;45322;-81
2024/02/05 05:10:53;;;;;;;;;4.33;3.00;;;;;;;;6309781;22;44749;-81
2024/02/05 05:13:19;;;;;;;;;4.00;3.50;;;;;;;;6339287;22;45378;-81
2024/02/05 05:15:44;;;;;;;;;10.25;3.50;;;;;;;;6309353;22;45296;-81
2024/02/05 05:18:09;;;;;;;;;2.00;2.00;;;;;;;;6337415;22;45301;-81
2024/02/05 05:20:34;;;;;;;;;3.00;3.00;;;;;;;;6308417;22;44806;-81
2024/02/05 05:23:00;;;;;;;;;2.75;1.75;;;;;;;;6307907;22;45385;-81
2024/02/05 05:25:25;;;;;;;;;1.00;1.00;;;;;;;;6309270;22;45319;-81
2024/02/05 05:27:50;;;;;;;;;5.00;3.67;;;;;;;;6309253;22;48172;-81
2024/02/05 05:30:16;;;;;;;;;7.67;7.00;;;;;;;;6337774;22;45352;-81
2024/02/05 05:32:41;;;;;;;;;3.25;3.00;;;;;;;;6337677;22;45506;-80
2024/02/05 05:35:06;;;;;;;;;5.50;3.50;;;;;;;;6335104;22;45746;-80
2024/02/05 05:37:32;;;;;;;;;5.25;2.75;;;;;;;;6337692;22;45270;-81
2024/02/05 05:39:57;;;;;;;;;5.33;4.00;;;;;;;;6337659;22;45614;-82
2024/02/05 05:42:23;;;;;;;;;2.00;2.00;;;;;;;;6309400;22;44913;-82
2024/02/05 05:44:50;;;;;;;;;2.33;2.00;;;;;;;;6310819;22;45287;-82
2024/02/05 05:47:15;;;;;;;;;3.33;3.00;;;;;;;;6310698;22;47120;-81
2024/02/05 05:49:40;;;;;;;;;5.00;3.33;;;;;;;;6338832;22;45425;-81
2024/02/05 05:52:06;;;;;;;;;6.75;5.00;;;;;;;;6336396;22;45298;-81
2024/02/05 05:54:31;;;;;;;;;3.25;3.25;;;;;;;;6310667;22;45394;-81
2024/02/05 05:56:56;;;;;;;;;4.75;3.00;;;;;;;;6310046;22;47047;-82
2024/02/05 05:59:21;;;;;;;;;8.00;8.00;;;;;;;;6310074;22;45465;-83
2024/02/05 06:49:35;;;;;;;;;9.00;7.33;;;;;;;;6137496;22;45164;-84
2024/02/05 06:52:03;;;;;;;;;4.67;4.67;;;;;;;;6268364;22;45602;-83
2024/02/05 06:57:08;;;;;;;;;5.33;3.33;;;;;;;;6184632;22;46186;-82
2024/02/05 06:59:33;;;;;;;;;8.33;7.33;;;;;;;;6192112;22;46275;-83
2024/02/05 07:02:09;;;;;;;;;7.67;7.67;;;;;;;;6299546;22;44813;-83
2024/02/05 07:04:40;;;;;;;;;6.33;4.00;;;;;;;;6198322;22;44805;-83
2024/02/05 07:07:06;;;;;;;;;9.67;4.00;;;;;;;;6305200;22;44786;-83
2024/02/05 07:09:36;;;;;;;;;8.00;4.00;;;;;;;;6296849;22;46535;-84
2024/02/05 07:12:01;;;;;;;;;5.00;5.00;;;;;;;;6308337;22;44787;-83
2024/02/05 07:14:27;;;;;;;;;13.00;6.33;;;;;;;;6306150;22;44859;-83
2024/02/05 07:16:52;;;;;;;;;4.67;4.67;;;;;;;;6300658;22;44961;-82
2024/02/05 07:19:18;;;;;;;;;5.00;5.00;;;;;;;;6296792;22;46717;-83
2024/02/05 07:21:43;;;;;;;;;8.00;8.00;;;;;;;;6198893;22;45225;-83
2024/02/05 07:24:08;;;;;;;;;8.67;7.33;;;;;;;;6305010;22;44856;-83
2024/02/05 07:26:37;;;;;;;;;6.33;5.00;;;;;;;;6200610;22;44694;-83
2024/02/05 07:29:02;;;;;;;;;7.33;7.00;;;;;;;;6200045;22;45557;-83
2024/02/05 07:31:27;;;;;;;;;8.00;8.00;;;;;;;;6302985;22;45367;-83
2024/02/05 07:33:53;;;;;;;;;11.00;7.00;;;;;;;;6199888;22;44925;-83
2024/02/05 07:36:18;;;;;;;;;5.33;3.67;;;;;;;;6299195;22;44904;-83
2024/02/05 07:38:43;;;;;;;;;11.00;9.00;;;;;;;;6352055;22;45310;-82
2024/02/05 07:41:09;;;;;;;;;7.67;6.33;;;;;;;;6354554;22;44790;-82
2024/02/05 07:43:37;;;;;;;;;8.33;5.00;;;;;;;;6351471;22;45474;-82
2024/02/05 07:46:02;;;;;;;;;8.67;8.00;;;;;;;;6321867;22;45260;-83
2024/02/05 07:48:29;;;;;;;;;8.00;8.00;;;;;;;;6328602;22;47018;-82
2024/02/05 07:50:55;;;;;;;;;9.33;7.00;;;;;;;;6324138;22;45265;-81
2024/02/05 07:53:21;;;;;;;;;11.33;9.33;;;;;;;;6351356;22;45335;-82
2024/02/05 08:04:42;;;;;;;;;6.00;5.00;;;;;;;;6077948;22;46509;-81
2024/02/05 08:32:31;;;;;;;;;8.33;8.33;;;;;;;;6246407;22;46300;-83
2024/02/05 08:34:56;;;;;;;;;12.67;10.67;;;;;;;;6335507;22;45393;-83
2024/02/05 08:58:03;;;;;;;;;10.00;8.00;;;;;;;;6153592;22;45762;-83
2024/02/05 09:00:29;;;;;;;;;13.00;10.67;;;;;;;;6361877;22;44784;-83
2024/02/05 09:13:16;;;;;;;;;9.33;9.33;;;;;;;;6190273;22;45320;-83
2024/02/05 09:15:42;;;;;;;;;8.67;6.33;;;;;;;;6289621;22;45299;-83
2024/02/05 09:18:08;;;;;;;;;7.33;7.33;;;;;;;;6285741;22;45493;-81
2024/02/05 09:20:41;;;;;;;;;7.00;7.00;;;;;;;;6287439;22;45445;-82
2024/02/05 09:23:07;;;;;;;;;8.00;7.67;;;;;;;;6260664;22;47131;-83
2024/02/05 09:25:35;;;;;;;;;9.00;7.33;;;;;;;;6285463;22;44876;-81
2024/02/05 09:28:00;;;;;;;;;10.67;9.33;;;;;;;;6288882;22;45416;-80
2024/02/05 09:30:25;;;;;;;;;11.00;10.00;;;;;;;;6289401;22;45325;-80
2024/02/05 09:32:52;;;;;;;;;12.00;9.33;;;;;;;;6183291;23;46912;-80
2024/02/05 09:40:29;;;;;;;;;7.00;5.00;;;;;;;;6194355;22;45771;-84
2024/02/05 09:43:09;;;;;;;;;10.00;8.00;;;;;;;;6292946;22;47359;-84
2024/02/05 09:45:35;;;;;;;;;10.33;8.33;;;;;;;;6267841;22;45252;-83
2024/02/05 09:48:01;;;;;;;;;10.67;9.67;;;;;;;;6294264;22;45422;-82
2024/02/05 09:50:29;;;;;;;;;9.67;8.00;;;;;;;;6288135;22;45181;-82
2024/02/05 09:52:55;;;;;;;;;16.00;9.00;;;;;;;;6188052;23;45212;-80
2024/02/05 09:55:22;;;;;;;;;9.67;9.00;;;;;;;;6285414;22;45467;-83
2024/02/05 09:57:48;;;;;;;;;12.33;8.67;;;;;;;;6287495;22;45771;-82
2024/02/05 10:00:13;;;;;;;;;10.33;9.00;;;;;;;;6288780;22;45417;-81
2024/02/05 10:02:48;;;;;;;;;8.33;4.00;;;;;;;;6287174;22;48031;-82
2024/02/05 10:05:20;;;;;;;;;13.33;9.67;;;;;;;;6185642;22;45289;-81
2024/02/05 10:07:50;;;;;;;;;4.67;4.67;;;;;;;;6293737;22;44887;-81
2024/02/05 10:10:17;;;;;;;;;9.00;9.00;;;;;;;;6291923;22;45472;-80
2024/02/05 10:12:44;;;;;;;;;11.00;9.33;;;;;;;;6294320;22;47733;-80
2024/02/05 10:15:10;;;;;;;;;12.00;10.00;;;;;;;;6184715;22;45307;-81
2024/02/05 10:17:38;;;;;;;;;11.33;10.33;;;;;;;;6291316;22;45702;-81
2024/02/05 10:20:05;;;;;;;;;12.33;9.33;;;;;;;;6290931;22;45607;-80
2024/02/05 10:22:30;;;;;;;;;16.67;12.33;;;;;;;;6286933;22;45439;-80
2024/02/05 10:24:59;;;;;;;;;11.33;11.00;;;;;;;;6286534;22;45367;-80
2024/02/05 10:30:28;;;;;;;;;8.33;8.00;;;;;;;;6182671;22;45308;-80
2024/02/05 10:32:57;;;;;;;;;26.00;14.33;;;;;;;;6286093;22;46793;-81
2024/02/05 10:35:22;;;;;;;;;11.00;9.00;;;;;;;;6227100;22;45314;-82
2024/02/05 10:37:48;;;;;;;;;13.67;11.67;;;;;;;;6342586;22;45317;-82
2024/02/05 10:40:13;;;;;;;;;14.00;12.67;;;;;;;;6309635;22;45264;-80
2024/02/05 10:42:44;;;;;;;;;13.33;10.33;;;;;;;;6340453;22;45425;-81
2024/02/05 10:45:16;;;;;;;;;15.67;15.33;;;;;;;;6340457;22;45439;-81
2024/02/05 10:47:42;;;;;;;;;14.00;14.00;;;;;;;;6312662;22;45309;-83
2024/02/05 10:50:13;;;;;;;;;20.00;15.00;;;;;;;;6312400;22;45405;-83
2024/02/05 10:52:47;;;;;;;;;16.67;15.33;;;;;;;;6313429;22;45410;-81
2024/02/05 10:55:13;;;;;;;;;16.00;15.00;;;;;;;;6343006;22;45341;-82
2024/02/05 10:57:38;;;;;;;;;19.00;18.00;;;;;;;;6315290;22;45335;-83
2024/02/05 11:00:07;;;;;;;;;17.00;15.33;;;;;;;;6316409;22;45361;-82
2024/02/05 11:02:34;;;;;;;;;16.00;12.00;;;;;;;;6315282;22;45347;-83
2024/02/05 11:05:02;;;;;;;;;18.33;15.00;;;;;;;;6341892;22;45351;-81
2024/02/05 11:07:38;;;;;;;;;12.00;11.00;;;;;;;;6318149;22;45553;-82
2024/02/05 11:10:04;;;;;;;;;14.67;12.67;;;;;;;;6343441;22;45882;-81
2024/02/05 11:12:33;;;;;;;;;14.33;13.67;;;;;;;;6340672;22;46935;-81
2024/02/05 11:15:13;;;;;;;;;16.00;15.00;;;;;;;;6316969;22;45654;-81
2024/02/05 11:17:44;;;;;;;;;12.67;7.33;;;;;;;;6316674;22;45405;-81
2024/02/05 11:20:10;;;;;;;;;17.33;15.67;;;;;;;;6317937;22;45494;-81
2024/02/05 11:22:45;;;;;;;;;13.67;11.33;;;;;;;;6343508;22;45352;-80
2024/02/05 11:25:12;;;;;;;;;17.00;14.00;;;;;;;;6317845;22;45444;-80
2024/02/05 11:27:40;;;;;;;;;16.33;15.67;;;;;;;;6320180;22;45290;-83
2024/02/05 11:30:26;;;;;;;;;14.33;11.67;;;;;;;;6292739;22;45217;-84
2024/02/05 11:32:57;;;;;;;;;14.33;12.67;;;;;;;;6348914;22;45722;-83
2024/02/05 11:38:20;;;;;;;;;13.67;9.00;;;;;;;;6322466;22;44932;-87
2024/02/05 11:40:48;;;;;;;;;17.67;14.00;;;;;;;;6319108;22;45188;-83
2024/02/05 11:43:13;;;;;;;;;16.00;14.00;;;;;;;;6319106;22;46724;-84
2024/02/05 11:45:39;;;;;;;;;14.67;13.67;;;;;;;;6316808;22;45421;-86
2024/02/05 11:48:23;;;;;;;;;14.33;14.33;;;;;;;;6317821;22;44826;-80
2024/02/05 12:07:10;;;;;;;;;;;;;;;;;;;;;
2024/02/05 12:09:46;;;;;;;;;20.67;18.00;;;;;;;;6187962;22;68231;-81
2024/02/05 12:12:44;;;;;;;;;;;;;;;;;;;;;
2024/02/05 12:16:36;;;;;;;;;16.67;14.00;;;;;;;;6213288;22;45575;-84
2024/02/05 12:18:59;;;;;;;;;12.67;12.67;;;;;;;;6193595;22;45435;-85
2024/02/05 12:21:31;;;;;;;;;15.67;10.33;;;;;;;;6283333;22;45520;-82
2024/02/05 12:24:09;;;;;;;;;13.33;11.67;;;;;;;;6299236;22;44844;-83
2024/02/05 12:26:37;;;;;;;;;14.00;12.33;;;;;;;;6287538;22;46655;-83
2024/02/05 12:29:03;;;;;;;;;16.00;14.67;;;;;;;;6289036;22;45431;-83
2024/02/05 12:31:38;;;;;;;;;17.00;12.00;;;;;;;;6294751;22;45342;-81
2024/02/05 12:34:32;;;;;;;;;15.00;15.00;;;;;;;;6194102;22;45400;-84
2024/02/05 12:36:57;;;;;;;;;17.67;15.00;;;;;;;;6318095;22;46523;-82
2024/02/05 12:39:32;;;;;;;;;21.00;17.67;;;;;;;;6343515;22;45504;-83
2024/02/05 12:41:57;;;;;;;;;6.67;5.33;;;;;;;;6312325;22;45481;-83
2024/02/05 12:44:35;;;;;;;;;;;;;;;;;;;;;
2024/02/05 12:47:11;;;;;;;;;11.00;11.00;;;;;;;;6347914;22;45535;-83
2024/02/05 12:49:39;;;;;;;;;17.00;15.00;;;;;;;;6314588;22;45360;-84
2024/02/05 12:52:07;;;;;;;;;14.33;14.00;;;;;;;;6313349;22;45505;-84
2024/02/05 12:54:36;;;;;;;;;12.67;11.00;;;;;;;;6313486;22;45389;-83
2024/02/05 12:57:07;;;;;;;;;14.67;14.00;;;;;;;;6346023;22;45576;-80
2024/02/05 12:59:34;;;;;;;;;15.00;12.67;;;;;;;;6344998;22;45326;-80
2024/02/05 13:02:01;;;;;;;;;16.33;12.67;;;;;;;;6345862;22;45343;-80
2024/02/05 13:04:26;;;;;;;;;15.33;14.67;;;;;;;;6313561;22;44827;-80
2024/02/05 13:10:21;;;;;;;;;16.33;15.33;;;;;;;;6131168;23;45270;-82
2024/02/05 13:12:46;;;;;;;;;21.33;16.33;;;;;;;;6099703;23;45476;-82
2024/02/05 13:15:12;;;;;;;;;10.67;10.67;;;;;;;;6104861;23;45427;-82
2024/02/05 13:17:39;;;;;;;;;13.67;11.67;;;;;;;;6134214;23;45423;-82
2024/02/05 13:20:06;;;;;;;;;18.00;16.67;;;;;;;;6132283;23;44823;-82
2024/02/05 13:22:54;;;;;;;;;16.33;14.67;;;;;;;;6111202;23;44726;-82
2024/02/05 13:25:22;;;;;;;;;19.00;16.33;;;;;;;;6104641;23;45312;-81
2024/02/05 13:27:47;;;;;;;;;12.33;11.00;;;;;;;;6105377;23;46879;-81
2024/02/05 13:30:13;;;;;;;;;20.67;16.00;;;;;;;;6103605;23;45340;-81
2024/02/05 13:32:40;;;;;;;;;18.67;18.00;;;;;;;;6103699;23;45354;-83
2024/02/05 13:38:16;;;;;;;;;16.00;16.00;;;;;;;;6201054;22;44811;-83
2024/02/05 13:40:43;;;;;;;;;18.67;12.67;;;;;;;;6252972;22;44858;-82
2024/02/05 13:43:09;;;;;;;;;17.00;17.00;;;;;;;;6254972;22;45184;-82
2024/02/05 13:45:35;;;;;;;;;15.00;14.33;;;;;;;;6251056;22;45353;-81
2024/02/05 13:48:00;;;;;;;;;17.00;11.00;;;;;;;;6303874;22;46656;-83
2024/02/05 13:50:34;;;;;;;;;17.67;16.00;;;;;;;;6348509;22;44850;-81
2024/02/05 13:53:00;;;;;;;;;17.00;15.00;;;;;;;;6347235;22;45117;-81
2024/02/05 13:55:26;;;;;;;;;21.00;17.00;;;;;;;;6347818;22;45404;-81
2024/02/05 14:00:56;;;;;;;;;16.33;14.00;;;;;;;;6344028;22;45283;-82
2024/02/05 14:03:22;;;;;;;;;18.33;15.00;;;;;;;;6320497;22;44763;-80
2024/02/05 14:05:47;;;;;;;;;17.33;15.67;;;;;;;;6322616;22;44768;-80
2024/02/05 14:08:19;;;;;;;;;19.67;16.00;;;;;;;;6323051;22;46752;-81
2024/02/05 14:13:48;;;;;;;;;18.00;16.00;;;;;;;;6357196;22;44807;-82
2024/02/05 14:19:02;;;;;;;;;17.33;16.00;;;;;;;;6358603;22;45275;-83
2024/02/05 14:21:36;;;;;;;;;20.67;17.00;;;;;;;;6329192;22;44778;-84
2024/02/05 14:24:03;;;;;;;;;15.67;13.00;;;;;;;;6327748;22;45134;-83
2024/02/05 14:26:35;;;;;;;;;18.00;16.00;;;;;;;;6331771;22;45092;-81
2024/02/05 14:29:00;;;;;;;;;21.67;16.33;;;;;;;;6296198;22;47188;-82
2024/02/05 14:31:32;;;;;;;;;21.00;16.67;;;;;;;;6355410;22;45360;-83
2024/02/05 14:33:57;;;;;;;;;14.33;12.33;;;;;;;;6326953;22;45658;-81
2024/02/05 14:39:26;;;;;;;;;16.67;15.00;;;;;;;;6359045;22;44871;-82
2024/02/05 14:41:55;;;;;;;;;18.00;15.00;;;;;;;;6328479;22;45226;-84
2024/02/05 14:44:35;;;;;;;;;18.33;15.33;;;;;;;;6358924;22;44707;-81
2024/02/05 14:47:00;;;;;;;;;18.33;15.67;;;;;;;;6330298;22;44788;-80
2024/02/05 14:49:37;;;;;;;;;;;;;;;;;;;;;
2024/02/05 14:52:05;;;;;;;;;14.33;10.33;;;;;;;;6357384;22;72163;-82
2024/02/05 14:54:40;;;;;;;;;17.33;14.33;;;;;;;;6360112;22;45230;-82
2024/02/05 14:57:06;;;;;;;;;15.00;14.00;;;;;;;;6354343;22;44802;-82
2024/02/05 14:59:32;;;;;;;;;17.67;14.00;;;;;;;;6325501;22;46948;-83
2024/02/05 15:01:57;;;;;;;;;14.00;12.00;;;;;;;;6330775;22;45212;-83
2024/02/05 15:04:30;;;;;;;;;21.00;16.33;;;;;;;;6327944;22;44837;-81
2024/02/05 15:06:56;;;;;;;;;13.33;10.33;;;;;;;;6323580;22;44762;-82
2024/02/05 15:09:21;;;;;;;;;16.33;14.00;;;;;;;;6325036;22;46851;-82
2024/02/05 15:11:47;;;;;;;;;21.00;16.33;;;;;;;;6324776;22;45201;-82
2024/02/05 15:14:14;;;;;;;;;18.33;17.00;;;;;;;;6355734;22;44747;-81
2024/02/05 15:16:41;;;;;;;;;15.00;14.33;;;;;;;;6351055;22;45496;-81
2024/02/05 15:19:15;;;;;;;;;11.33;11.33;;;;;;;;6353999;22;45445;-82
2024/02/05 15:21:41;;;;;;;;;19.67;14.67;;;;;;;;6324987;22;44873;-81
2024/02/05 15:24:08;;;;;;;;;17.67;14.33;;;;;;;;6320385;22;44819;-80
2024/02/05 15:26:37;;;;;;;;;15.67;14.33;;;;;;;;6324194;22;45178;-82
2024/02/05 15:29:03;;;;;;;;;18.00;12.00;;;;;;;;6321000;22;48056;-83
2024/02/05 15:31:31;;;;;;;;;15.67;14.67;;;;;;;;6322502;22;45355;-81
2024/02/05 15:33:57;;;;;;;;;18.67;15.33;;;;;;;;6325487;22;45830;-82
2024/02/05 15:36:22;;;;;;;;;14.00;10.67;;;;;;;;6326329;22;45335;-82
2024/02/05 15:38:47;;;;;;;;;17.33;14.67;;;;;;;;6326495;22;46821;-82
2024/02/05 15:41:23;;;;;;;;;17.33;14.67;;;;;;;;6353971;22;45279;-81
2024/02/05 15:43:51;;;;;;;;;14.67;12.00;;;;;;;;6353970;22;45301;-80
2024/02/05 15:46:16;;;;;;;;;14.00;13.67;;;;;;;;6323318;22;45271;-82
2024/02/05 15:48:41;;;;;;;;;15.33;15.33;;;;;;;;6322331;22;47003;-80
2024/02/05 15:51:07;;;;;;;;;17.33;15.00;;;;;;;;6322785;22;44814;-82
2024/02/05 15:56:36;;;;;;;;;16.00;13.67;;;;;;;;6354407;22;44793;-82
2024/02/05 15:59:07;;;;;;;;;11.00;11.00;;;;;;;;6352971;22;45417;-81
2024/02/05 16:01:32;;;;;;;;;16.67;12.00;;;;;;;;6354331;22;45234;-81
2024/02/05 16:03:58;;;;;;;;;16.00;16.00;;;;;;;;6355801;22;45231;-81
2024/02/05 16:06:26;;;;;;;;;19.33;14.33;;;;;;;;6323627;22;44945;-80
2024/02/05 16:08:51;;;;;;;;;16.00;15.00;;;;;;;;6319238;22;47049;-81
2024/02/05 16:11:22;;;;;;;;;17.33;15.67;;;;;;;;6347760;22;44812;-80
2024/02/05 16:13:47;;;;;;;;;16.33;15.33;;;;;;;;6318917;22;44755;-81
2024/02/05 16:16:16;;;;;;;;;23.33;17.33;;;;;;;;6350384;22;45482;-82
2024/02/05 16:18:42;;;;;;;;;17.33;15.33;;;;;;;;6318883;22;46555;-82
2024/02/05 16:21:11;;;;;;;;;19.00;16.00;;;;;;;;6346159;22;45422;-82
2024/02/05 16:23:36;;;;;;;;;24.33;16.33;;;;;;;;6349149;22;44803;-82
2024/02/05 16:26:02;;;;;;;;;23.67;16.00;;;;;;;;6347446;22;45440;-82
2024/02/05 16:28:27;;;;;;;;;15.67;14.33;;;;;;;;6318917;22;47234;-82
2024/02/05 16:30:53;;;;;;;;;16.67;14.67;;;;;;;;6295838;22;45369;-81
2024/02/05 16:33:19;;;;;;;;;22.67;18.00;;;;;;;;6318912;22;45455;-82
2024/02/05 16:35:44;;;;;;;;;15.33;10.00;;;;;;;;6321733;22;45216;-82
2024/02/05 16:38:11;;;;;;;;;14.33;13.67;;;;;;;;6356775;22;45104;-83
2024/02/05 16:40:56;;;;;;;;;17.67;15.00;;;;;;;;6352801;22;44859;-82
2024/02/05 16:43:21;;;;;;;;;15.00;14.00;;;;;;;;6324653;22;44787;-82
2024/02/05 16:45:50;;;;;;;;;18.67;16.00;;;;;;;;6326506;22;44846;-83
2024/02/05 16:48:15;;;;;;;;;18.00;16.00;;;;;;;;6350937;22;45446;-82
2024/02/05 16:50:48;;;;;;;;;21.00;17.00;;;;;;;;6322185;22;44866;-81
2024/02/05 16:53:13;;;;;;;;;15.33;14.00;;;;;;;;6324212;22;44792;-81
2024/02/05 16:55:40;;;;;;;;;16.00;15.00;;;;;;;;6326107;22;45323;-81
2024/02/05 16:58:06;;;;;;;;;20.33;16.00;;;;;;;;6322652;22;47254;-83
2024/02/05 17:00:34;;;;;;;;;16.33;13.67;;;;;;;;6323371;22;44918;-82
2024/02/05 17:03:08;;;;;;;;;16.00;11.00;;;;;;;;6354477;22;44884;-82
2024/02/05 17:05:33;;;;;;;;;15.33;12.00;;;;;;;;6323461;22;44834;-81
2024/02/05 17:07:59;;;;;;;;;15.67;15.33;;;;;;;;6322644;22;46813;-82
2024/02/05 17:10:35;;;;;;;;;14.33;14.33;;;;;;;;6321385;22;44861;-82
2024/02/05 17:13:00;;;;;;;;;17.67;13.00;;;;;;;;6323145;22;44796;-83
2024/02/05 17:15:26;;;;;;;;;13.00;11.67;;;;;;;;6351882;22;44774;-83
2024/02/05 17:17:51;;;;;;;;;15.00;12.33;;;;;;;;6325076;22;47105;-82
2024/02/05 17:20:17;;;;;;;;;17.33;14.33;;;;;;;;6352422;22;45665;-81
2024/02/05 17:22:42;;;;;;;;;14.00;13.00;;;;;;;;6321258;22;44820;-81
2024/02/05 17:25:08;;;;;;;;;13.00;13.00;;;;;;;;6319125;22;45300;-81
2024/02/05 17:27:33;;;;;;;;;16.33;15.00;;;;;;;;6320897;22;47142;-80
2024/02/05 17:29:59;;;;;;;;;16.67;11.00;;;;;;;;6350781;22;45416;-82
2024/02/05 17:32:24;;;;;;;;;13.33;11.00;;;;;;;;6349085;22;44774;-82
2024/02/05 17:34:49;;;;;;;;;10.33;10.33;;;;;;;;6321670;22;45767;-83
2024/02/05 17:37:16;;;;;;;;;14.00;13.33;;;;;;;;6320236;22;47286;-81
2024/02/05 17:39:41;;;;;;;;;14.67;13.00;;;;;;;;6293219;22;44818;-81
2024/02/05 17:42:06;;;;;;;;;11.00;11.00;;;;;;;;6347917;22;45298;-81
2024/02/05 17:44:31;;;;;;;;;8.00;7.67;;;;;;;;6348828;22;44861;-81
2024/02/05 17:46:57;;;;;;;;;14.00;10.00;;;;;;;;6320071;22;46542;-82
2024/02/05 17:49:22;;;;;;;;;11.33;10.33;;;;;;;;6347798;22;44754;-82
2024/02/05 17:51:47;;;;;;;;;12.33;8.67;;;;;;;;6346990;22;45235;-81
2024/02/05 17:54:13;;;;;;;;;16.00;16.00;;;;;;;;6319449;22;44982;-82
2024/02/05 17:56:38;;;;;;;;;10.33;10.33;;;;;;;;6317809;22;46842;-81
2024/02/05 17:59:03;;;;;;;;;9.67;8.67;;;;;;;;6319521;22;45397;-82
2024/02/05 18:01:28;;;;;;;;;17.67;10.33;;;;;;;;6318364;22;44845;-82
2024/02/05 18:03:54;;;;;;;;;17.33;9.00;;;;;;;;6318005;22;44812;-81
2024/02/05 18:06:22;;;;;;;;;11.33;10.67;;;;;;;;6318465;22;47440;-80
2024/02/05 18:08:48;;;;;;;;;13.33;13.33;;;;;;;;6318016;22;45028;-81
2024/02/05 18:11:14;;;;;;;;;11.00;11.00;;;;;;;;6319645;22;44774;-83